Possum Fork, Arkansas
Current Conditions -  °F | °C
As of 8:53 AM on Monday 22 Dec 2014 (Local Time) from KGLH Reporting Station
Haze Haze  
Wind Chill: 53°   Ceiling: 400
Heat Index: 53°   Visibility: 2.5mi
Dew Point: 51°   Wind: 8mph
Humidity: 93%   Direction: 160°SSE
Pressure: 29.8"   Gusts: NA
Location:  33.7652°N, 91.2745°W
Report Text: KGLH 221453Z AUTO 16007KT 2 1/2SM BR OVC004 12/11 A2980 RMK AO2 SLP099 T01170106 56005
Loading
Personal Weather Stations






























Interactive Weather Map New forecast layout! Learn more

10-Day Weather Forecast

Advertisements
Track Severe Weather on mobile